Data for 04/06/2006

Time Sea-Level Adjusted Pressure Absolute Pressure Temperature Relative Humidity Dew Point   
(mb) (inHg) (mb) (inHg) (C) (F) (%) (C) (F)
00:05 1002 29.59 831 24.54 4.4 39.9 94 3.5 38.3
00:10 1002 29.59 831 24.54 4.4 39.8 94 3.5 38.3
00:15 1002 29.59 831 24.54 4.4 39.9 94 3.5 38.4
00:20 1002 29.59 831 24.54 4.4 39.9 94 3.5 38.2
00:25 1002 29.59 831 24.54 4.4 39.9 92 3.3 37.9
00:30 1002 29.59 831 24.54 4.2 39.6 93 3.2 37.8
00:35 1001 29.56 831 24.54 4.2 39.6 93 3.3 37.9
00:40 1001 29.56 831 24.54 4.2 39.5 93 3.2 37.7
00:45 1002 29.59 831 24.54 4.1 39.4 94 3.2 37.7
00:50 1002 29.59 831 24.54 4 39.2 93 3 37.5
00:55 1002 29.59 831 24.54 4 39.2 93 3 37.3
01:00 1002 29.59 831 24.54 4 39.2 92 2.8 37.1
01:05 1002 29.59 831 24.54 4.1 39.3 92 2.9 37.1
01:10 1002 29.59 831 24.54 4.2 39.6 92 3.1 37.5
01:15 1002 29.59 831 24.54 4.4 39.8 90 2.9 37.3
01:20 1002 29.59 831 24.54 4.4 40 90 2.9 37.3
01:25 1002 29.59 831 24.54 4.4 40 91 3 37.4
01:30 1002 29.59 831 24.54 4.4 39.9 91 3 37.5
01:35 1002 29.59 831 24.54 4.4 39.9 91 3.1 37.6
01:40 1002 29.59 831 24.54 4.3 39.8 92 3.1 37.5
01:45 1002 29.59 831 24.54 4.3 39.8 92 3.1 37.6
01:50 1002 29.59 831 24.54 4.3 39.7 92 3 37.4
01:55 1002 29.59 831 24.54 4.3 39.7 92 3 37.5
02:00 1002 29.59 831 24.54 4.2 39.6 92 3 37.5
02:05 1002 29.59 831 24.54 4.2 39.6 91 2.9 37.3
02:10 1002 29.59 831 24.54 4.2 39.6 91 3 37.3
02:15 1002 29.59 831 24.54 4.3 39.7 90 2.8 37
02:20 1002 29.59 831 24.54 4.3 39.7 89 2.6 36.7
02:25 1002 29.59 831 24.54 4.3 39.7 90 2.8 37.1
02:30 1002 29.59 831 24.54 4.3 39.8 90 2.8 37.1
02:35 1002 29.59 831 24.54 4.3 39.8 89 2.7 36.9
02:40 1002 29.59 831 24.54 4.3 39.7 90 2.8 37
02:45 1002 29.59 831 24.54 4.2 39.6 90 2.7 36.9
02:50 1002 29.59 831 24.54 4.3 39.8 90 2.8 37
02:55 1002 29.59 831 24.54 4.3 39.7 90 2.7 36.9
03:00 1002 29.59 831 24.54 4.3 39.7 89 2.7 36.8
03:05 1002 29.59 831 24.54 4.3 39.8 88 2.6 36.7
03:10 1002 29.59 831 24.54 4.3 39.8 89 2.8 37
03:15 1002 29.59 831 24.54 4.3 39.7 89 2.7 36.9
03:20 1002 29.59 831 24.54 4.3 39.7 89 2.6 36.7
03:25 1002 29.59 831 24.54 4.3 39.7 89 2.7 36.8
03:30 1002 29.59 831 24.54 4.3 39.8 89 2.8 37
03:35 1002 29.59 831 24.54 4.3 39.8 90 2.7 36.9
03:40 1002 29.59 831 24.54 4.3 39.8 89 2.7 36.9
03:45 1002 29.59 831 24.54 4.3 39.8 89 2.7 36.9
03:50 1002 29.59 831 24.54 4.4 39.8 90 2.8 37.1
03:55 1002 29.59 831 24.54 4.3 39.7 89 2.7 36.8
04:00 1002 29.59 831 24.54 4.2 39.6 89 2.6 36.7
04:05 1002 29.59 831 24.54 4.2 39.6 90 2.7 36.9
04:10 1002 29.59 831 24.54 4.2 39.6 91 2.8 37.1
04:15 1002 29.59 831 24.54 4.2 39.5 90 2.7 36.9
04:20 1002 29.59 831 24.54 4.1 39.3 91 2.8 37
04:25 1002 29.59 831 24.54 4.1 39.3 92 2.8 37.1
04:30 1002 29.59 831 24.54 4 39.2 92 2.8 37
04:35 1002 29.59 831 24.54 4 39.1 92 2.8 37
04:40 1002 29.59 831 24.54 3.9 39.1 92 2.7 36.9
04:45 1002 29.59 831 24.54 3.9 39 92 2.7 36.8
04:50 1002 29.59 831 24.54 3.9 39.1 91 2.7 36.8
04:55 1002 29.59 831 24.54 3.9 38.9 92 2.7 36.9
05:00 1002 29.59 831 24.54 3.8 38.9 93 2.8 37.1
05:05 1002 29.59 831 24.54 3.9 39 93 2.8 37
05:10 1002 29.59 831 24.54 3.9 39 92 2.7 36.9
05:15 1002 29.59 831 24.54 3.8 38.8 93 2.8 37
05:20 1002 29.59 831 24.54 3.8 38.9 94 2.9 37.2
05:25 1002 29.59 831 24.54 3.7 38.7 93 2.8 37
05:30 1002 29.59 831 24.54 3.6 38.5 93 2.6 36.7
05:35 1002 29.59 831 24.54 3.4 38.2 94 2.5 36.5
05:40 1002 29.59 831 24.54 3.5 38.3 93 2.5 36.6
05:45 1002 29.59 831 24.54 3.5 38.2 94 2.6 36.6
05:50 1002 29.59 831 24.54 3.3 38 94 2.4 36.3
05:55 1002 29.59 831 24.54 3.2 37.7 94 2.3 36.1
06:00 1002 29.59 831 24.54 3.1 37.6 94 2.3 36.1
06:05 1002 29.59 831 24.54 3 37.4 94 2.2 35.9
06:10 1002 29.59 831 24.54 3 37.4 94 2.1 35.8
06:15 1002 29.59 831 24.54 2.9 37.2 94 2 35.6
06:20 1002 29.59 831 24.54 2.8 37 94 1.9 35.3
06:25 1002 29.59 831 24.54 2.7 36.9 94 1.8 35.2
06:30 1002 29.59 831 24.54 2.7 36.8 94 1.8 35.2
06:35 1002 29.59 831 24.54 2.6 36.7 94 1.8 35.2
06:40 1002 29.59 831 24.54 2.6 36.6 94 1.7 35
06:45 1002 29.59 831 24.54 2.4 36.4 94 1.6 34.9
06:50 1002 29.59 831 24.54 2.4 36.4 94 1.6 34.9
06:55 1002 29.59 831 24.54 2.4 36.4 95 1.7 35
07:00 1002 29.59 831 24.54 2.3 36.2 95 1.6 34.9
07:05 1002 29.59 831 24.54 2.2 36 95 1.5 34.7
07:10 1002 29.59 831 24.54 2.1 35.8 95 1.3 34.4
07:15 1002 29.59 831 24.54 1.8 35.3 95 1.1 34.1
07:20 1002 29.59 831 24.54 1.7 35.1 96 1.1 34
07:25 1002 29.59 831 24.54 1.5 34.7 96 0.9 33.5
07:30 1002 29.59 831 24.54 1.3 34.4 96 0.8 33.4
07:35 1002 29.59 831 24.54 1.2 34.1 96 0.6 33.2
07:40 1002 29.59 832 24.57 1 33.8 97 0.5 32.9
07:45 1002 29.59 832 24.57 0.9 33.6 97 0.5 32.8
07:50 1002 29.59 832 24.57 0.8 33.5 97 0.4 32.8
07:55 1002 29.59 832 24.57 0.8 33.5 98 0.5 32.9
08:00 1002 29.59 832 24.57 0.8 33.4 97 0.4 32.8
08:05 1003 29.62 832 24.57 0.8 33.4 98 0.5 32.9
08:10 1003 29.62 832 24.57 0.8 33.4 98 0.5 32.8
08:15 1003 29.62 832 24.57 0.8 33.4 98 0.5 32.9
08:20 1003 29.62 832 24.57 0.8 33.5 98 0.5 32.9
08:25 1003 29.62 832 24.57 0.8 33.4 98 0.5 32.8
08:30 1003 29.62 832 24.57 0.8 33.4 98 0.4 32.7
08:35 1003 29.62 832 24.57 0.7 33.2 98 0.4 32.7
08:40 1003 29.62 832 24.57 0.7 33.2 98 0.3 32.6
08:45 1003 29.62 832 24.57 0.9 33.6 98 0.6 33
08:50 1003 29.62 832 24.57 0.9 33.6 97 0.5 32.9
08:55 1003 29.62 832 24.57 0.7 33.3 97 0.4 32.6
09:00 1003 29.62 832 24.57 0.7 33.3 98 0.4 32.7
09:05 1003 29.62 832 24.57 0.7 33.3 98 0.4 32.7
09:10 1003 29.62 832 24.57 0.8 33.4 98 0.4 32.7
09:15 1003 29.62 832 24.57 0.8 33.4 98 0.5 32.9
09:20 1003 29.62 832 24.57 0.8 33.4 97 0.4 32.7
09:25 1003 29.62 833 24.6 0.6 33.1 98 0.3 32.5
09:30 1003 29.62 833 24.6 0.5 33 98 0.3 32.5
09:35 1004 29.65 833 24.6 0.6 33 98 0.3 32.5
09:40 1004 29.65 833 24.6 0.6 33 98 0.3 32.6
09:45 1004 29.65 833 24.6 0.6 33.1 98 0.3 32.6
09:50 1004 29.65 833 24.6 0.6 33.1 98 0.3 32.6
09:55 1004 29.65 833 24.6 0.6 33.1 98 0.4 32.7
10:00 1004 29.65 833 24.6 0.7 33.2 98 0.4 32.8
10:05 1004 29.65 833 24.6 0.7 33.3 98 0.5 32.8
10:10 1004 29.65 833 24.6 0.7 33.2 98 0.4 32.7
10:15 1004 29.65 833 24.6 0.7 33.3 98 0.4 32.8
10:20 1004 29.65 834 24.63 0.8 33.4 98 0.5 32.9
10:25 1004 29.65 834 24.63 0.9 33.6 98 0.6 33.1
10:30 1005 29.68 834 24.63 0.9 33.7 98 0.6 33.1
10:35 1005 29.68 834 24.63 1 33.8 97 0.7 33.2
10:40 1005 29.68 834 24.63 1 33.8 97 0.5 32.9
10:45 1005 29.68 834 24.63 1.2 34.2 96 0.7 33.2
10:50 1005 29.68 834 24.63 1.5 34.7 95 0.8 33.4
10:55 1005 29.68 834 24.63 1.6 34.9 95 0.9 33.7
11:00 1005 29.68 834 24.63 2.1 35.7 91 0.8 33.5
11:05 1005 29.68 834 24.63 2 35.6 93 0.9 33.6
11:10 1005 29.68 835 24.66 2.1 35.8 92 0.9 33.6
11:15 1005 29.68 835 24.66 2.2 36 91 1 33.8
11:20 1006 29.71 835 24.66 2.3 36.1 92 1.1 34
11:25 1006 29.71 835 24.66 2.3 36.2 91 1 33.8
11:30 1006 29.71 835 24.66 2.4 36.3 91 1.1 34
11:35 1006 29.71 835 24.66 2.6 36.7 90 1.2 34.1
11:40 1006 29.71 835 24.66 2.8 37 89 1.1 34
11:45 1006 29.71 835 24.66 3 37.4 88 1.2 34.2
11:50 1006 29.71 835 24.66 3.1 37.6 87 1.2 34.2
11:55 1006 29.71 835 24.66 2.9 37.2 89 1.3 34.4
12:00 1006 29.71 836 24.69 2.8 37 89 1.1 34
12:05 1006 29.71 836 24.69 2.8 37.1 88 1 33.8
12:10 1007 29.74 836 24.69 2.9 37.2 89 1.2 34.1
12:15 1007 29.74 836 24.69 3 37.4 87 1.1 34
12:20 1007 29.74 836 24.69 2.9 37.3 88 1.1 33.9
12:25 1007 29.74 836 24.69 2.9 37.2 88 1.2 34.1
12:30 1007 29.74 836 24.69 2.5 36.5 90 1 33.9
12:35 1007 29.74 836 24.69 2.5 36.5 90 1 33.9
12:40 1007 29.74 836 24.69 2.9 37.2 89 1.2 34.2
12:45 1007 29.74 836 24.69 3.1 37.6 89 1.4 34.5
12:50 1007 29.74 836 24.69 3.5 38.2 88 1.6 34.9
12:55 1007 29.74 836 24.69 3.5 38.3 88 1.8 35.2
13:00 1007 29.74 836 24.69 3.3 37.9 87 1.4 34.5
13:05 1007 29.74 837 24.72 3.3 37.9 89 1.6 34.9
13:10 1007 29.74 837 24.72 3.5 38.3 87 1.6 34.9
13:15 1008 29.77 837 24.72 3.5 38.3 88 1.6 35
13:20 1008 29.77 837 24.72 3.1 37.6 90 1.6 35
13:25 1008 29.77 837 24.72 3 37.3 90 1.5 34.8
13:30 1008 29.77 837 24.72 3.1 37.5 91 1.8 35.2
13:35 1008 29.77 837 24.72 3.1 37.5 91 1.7 35.1
13:40 1008 29.77 837 24.72 3.6 38.4 91 2.2 35.9
13:45 1008 29.77 837 24.72 3.7 38.7 90 2.3 36.1
13:50 1008 29.77 837 24.72 3.6 38.4 91 2.2 36
13:55 1008 29.77 837 24.72 3.7 38.6 90 2.2 35.9
14:00 1008 29.77 838 24.75 3.9 39.1 89 2.3 36.1
14:05 1008 29.77 838 24.75 3.7 38.6 90 2.2 36
14:10 1009 29.8 838 24.75 3.4 38.1 93 2.3 36.1
14:15 1009 29.8 838 24.75 3.4 38.1 92 2.2 36
14:20 1009 29.8 838 24.75 3.5 38.4 92 2.3 36.1
14:25 1009 29.8 838 24.75 3.5 38.3 92 2.4 36.3
14:30 1009 29.8 838 24.75 3.6 38.5 92 2.4 36.4
14:35 1009 29.8 838 24.75 3.7 38.7 93 2.7 36.9
14:40 1009 29.8 838 24.75 4 39.2 90 2.6 36.6
14:45 1009 29.8 839 24.78 3.8 38.8 92 2.7 36.8
14:50 1009 29.8 839 24.78 3.9 39.1 90 2.5 36.4
14:55 1010 29.83 839 24.78 3.7 38.7 92 2.5 36.5
15:00 1010 29.83 839 24.78 3.8 38.8 91 2.5 36.5
15:05 1010 29.83 839 24.78 3.7 38.6 93 2.6 36.7
15:10 1010 29.83 839 24.78 3.9 38.9 93 2.8 37
15:15 1010 29.83 839 24.78 4 39.3 93 3 37.4
15:20 1010 29.83 839 24.78 4.2 39.6 91 2.9 37.2
15:25 1010 29.83 839 24.78 4.2 39.6 92 3 37.4
15:30 1010 29.83 839 24.78 4.4 39.8 91 3 37.4
15:35 1010 29.83 839 24.78 4.4 39.9 91 3.1 37.5
15:40 1010 29.83 839 24.78 4.5 40.2 90 3 37.4
15:45 1010 29.83 840 24.81 4.5 40.2 91 3.1 37.6
15:50 1010 29.83 840 24.81 4.4 40 90 3 37.4
15:55 1010 29.83 840 24.81 4.4 39.8 92 3.1 37.6
16:00 1010 29.83 840 24.81 4.4 39.8 92 3.2 37.7
16:05 1011 29.85 840 24.81 4.1 39.4 92 3 37.4
16:10 1011 29.85 840 24.81 4.2 39.6 93 3.2 37.8
16:15 1011 29.85 840 24.81 4.3 39.7 92 3.1 37.5
16:20 1011 29.85 840 24.81 4.3 39.8 92 3.1 37.6
16:25 1011 29.85 840 24.81 4.3 39.8 92 3.2 37.7
16:30 1011 29.85 840 24.81 4.5 40.1 92 3.2 37.8
16:35 1011 29.85 840 24.81 4.2 39.6 93 3.1 37.6
16:40 1011 29.85 840 24.81 4.2 39.5 93 3.1 37.6
16:45 1011 29.85 840 24.81 4.1 39.3 93 3.1 37.6
16:50 1011 29.85 841 24.83 4.1 39.4 93 3.1 37.5
16:55 1011 29.85 841 24.83 4.1 39.3 93 3.1 37.6
17:00 1012 29.88 841 24.83 4.2 39.5 93 3.1 37.7
17:05 1012 29.88 841 24.83 4.1 39.4 93 3 37.5
17:10 1012 29.88 841 24.83 4.1 39.4 93 3.1 37.6
17:15 1012 29.88 841 24.83 4.1 39.5 94 3.2 37.8
17:20 1012 29.88 841 24.83 4.4 39.9 93 3.3 37.9
17:25 1012 29.88 841 24.83 4.2 39.6 92 3 37.4
17:30 1012 29.88 841 24.83 4.1 39.3 94 3.1 37.6
17:35 1012 29.88 841 24.83 4.2 39.6 92 3 37.4
17:40 1012 29.88 841 24.83 4 39.3 93 3 37.4
17:45 1012 29.88 841 24.83 4 39.2 93 3 37.3
17:50 1012 29.88 842 24.86 3.9 39 94 3 37.4
17:55 1012 29.88 842 24.86 3.6 38.4 95 2.9 37.2
18:00 1013 29.91 842 24.86 3.5 38.3 96 2.9 37.2
18:05 1013 29.91 842 24.86 3.5 38.3 97 3 37.4
18:10 1013 29.91 842 24.86 3.8 38.8 95 3.1 37.6
18:15 1013 29.91 842 24.86 3.9 39.1 94 3.1 37.5
18:20 1013 29.91 842 24.86 3.7 38.7 95 2.9 37.3
18:25 1013 29.91 842 24.86 3.6 38.4 96 3 37.3
18:30 1013 29.91 842 24.86 3.6 38.4 96 3 37.4
18:35 1013 29.91 842 24.86 3.5 38.2 96 2.9 37.3
18:40 1013 29.91 842 24.86 3.5 38.4 96 3 37.4
18:45 1013 29.91 842 24.86 3.4 38.1 96 2.9 37.2
18:50 1013 29.91 843 24.89 3.2 37.8 97 2.8 37.1
18:55 1013 29.91 843 24.89 3.1 37.6 98 2.8 37
19:00 1013 29.91 843 24.89 3.2 37.7 98 2.9 37.1
19:05 1014 29.94 843 24.89 3.2 37.7 98 2.8 37.1
19:10 1014 29.94 843 24.89 3.1 37.7 98 2.8 37.1
19:15 1014 29.94 843 24.89 3.2 37.7 98 2.9 37.2
19:20 1014 29.94 843 24.89 3.4 38.2 98 3.2 37.7
19:25 1014 29.94 843 24.89 3.6 38.5 97 3.2 37.8
19:30 1014 29.94 843 24.89 3.6 38.6 97 3.2 37.8
19:35 1014 29.94 843 24.89 3.7 38.7 97 3.2 37.7
19:40 1014 29.94 843 24.89 3.8 38.9 97 3.3 38
19:45 1014 29.94 843 24.89 3.9 39 96 3.3 38
19:50 1014 29.94 843 24.89 3.9 39 96 3.3 37.9
19:55 1014 29.94 843 24.89 3.9 39.1 95 3.2 37.8
20:00 1014 29.94 843 24.89 3.9 39.1 95 3.2 37.7
20:05 1014 29.94 843 24.89 3.8 38.9 96 3.2 37.8
20:10 1014 29.94 843 24.89 3.9 39 95 3.2 37.8
20:15 1014 29.94 844 24.92 3.8 38.8 97 3.2 37.8
20:20 1014 29.94 844 24.92 3.8 38.9 96 3.2 37.8
20:25 1014 29.94 844 24.92 3.9 39 96 3.3 38
20:30 1015 29.97 844 24.92 3.9 39 96 3.3 38
20:35 1015 29.97 844 24.92 3.8 38.9 96 3.3 37.9
20:40 1015 29.97 844 24.92 3.7 38.7 96 3.2 37.8
20:45 1015 29.97 844 24.92 3.6 38.4 97 3.1 37.6
20:50 1015 29.97 844 24.92 3.5 38.3 97 3 37.5
20:55 1015 29.97 844 24.92 3.6 38.4 97 3.1 37.6
21:00 1015 29.97 844 24.92 3.7 38.7 96 3.2 37.7
21:05 1015 29.97 844 24.92 3.8 38.9 96 3.2 37.8
21:10 1015 29.97 844 24.92 3.8 38.9 96 3.2 37.8
21:15 1015 29.97 844 24.92 3.6 38.6 95 3 37.4
21:20 1015 29.97 844 24.92 3.5 38.3 95 2.8 37
21:25 1015 29.97 844 24.92 3.6 38.5 95 2.9 37.3
21:30 1015 29.97 845 24.95 3.6 38.4 95 2.9 37.3
21:35 1015 29.97 845 24.95 3.6 38.4 95 2.9 37.2
21:40 1015 29.97 845 24.95 3.5 38.4 95 2.9 37.2
21:45 1015 29.97 845 24.95 3.6 38.4 95 2.9 37.2
21:50 1016 30 845 24.95 3.5 38.3 96 2.9 37.3
21:55 1016 30 845 24.95 3.4 38.2 96 2.9 37.2
22:00 1016 30 845 24.95 3.4 38.1 97 2.9 37.2
22:05 1016 30 845 24.95 3.4 38 97 2.9 37.1
22:10 1016 30 845 24.95 3.4 38.1 97 2.9 37.2
22:15 1016 30 845 24.95 3.3 38 96 2.8 37.1
22:20 1016 30 845 24.95 3.2 37.8 96 2.7 36.9
22:25 1016 30 845 24.95 3.2 37.8 96 2.6 36.8
22:30 1016 30 845 24.95 3.2 37.7 96 2.6 36.7
22:35 1016 30 845 24.95 3.2 37.7 96 2.6 36.6
22:40 1016 30 845 24.95 3.2 37.7 96 2.6 36.7
22:45 1016 30 845 24.95 3.2 37.8 96 2.6 36.7
22:50 1016 30 845 24.95 3.3 37.9 95 2.6 36.6
22:55 1016 30 845 24.95 3.3 37.9 95 2.6 36.6
23:00 1016 30 845 24.95 3.3 37.9 96 2.7 36.8
23:05 1016 30 845 24.95 3.4 38.1 96 2.8 37
23:10 1016 30 846 24.98 3.4 38.1 95 2.7 36.9
23:15 1016 30 846 24.98 3.2 37.8 96 2.7 36.9
23:20 1016 30 846 24.98 3.2 37.7 97 2.7 36.8
23:25 1016 30 846 24.98 3.1 37.6 97 2.6 36.7
23:30 1016 30 846 24.98 3.2 37.8 97 2.8 37
23:35 1016 30 846 24.98 3.2 37.8 97 2.7 36.9
23:40 1016 30 846 24.98 3.2 37.7 97 2.7 36.9
23:45 1016 30 846 24.98 3.1 37.6 97 2.7 36.9
23:50 1016 30 846 24.98 3.3 37.9 97 2.9 37.2
23:55 1016 30 846 24.98 3.4 38.1 97 2.9 37.3
24:00 1016 30 846 24.98 3.4 38.2 96 2.9 37.2